Time;durP1;ratioP1;P1;durP2;ratioP2;P2;SDS_P1;SDS_P2;PMS_P1;PMS_P2;Temp;Humidity;BMP_temperature;BMP_pressure;BME280_temperature;BME280_humidity;BME280_pressure;Samples;Min_cycle;Max_cycle;Signal;HPM_P1;HPM_P2
2022/11/18 00:01:06;;;;;;;23.65;19.10;;;4.60;99.90;;;;;;5066410;28;20223;-79
2022/11/18 00:03:33;;;;;;;24.05;20.33;;;4.60;99.90;;;;;;5077401;28;20366;-79
2022/11/18 00:06:00;;;;;;;25.45;18.27;;;4.50;99.90;;;;;;5072707;28;20294;-79
2022/11/18 00:08:31;;;;;;;24.02;19.35;;;4.50;99.90;;;;;;5073756;28;20734;-78
2022/11/18 00:10:58;;;;;;;25.52;20.30;;;4.40;99.90;;;;;;5064990;28;20217;-79
2022/11/18 00:16:14;;;;;;;24.15;20.83;;;4.50;99.90;;;;;;5074297;28;20227;-76
2022/11/18 00:18:41;;;;;;;25.70;19.48;;;4.50;99.90;;;;;;5065050;28;20231;-79
2022/11/18 00:21:10;;;;;;;21.38;18.70;;;4.50;99.90;;;;;;5073958;28;20226;-76
2022/11/18 00:23:39;;;;;;;22.55;18.67;;;4.50;99.90;;;;;;5072905;28;20280;-77
2022/11/18 00:26:10;;;;;;;23.48;18.77;;;4.60;99.90;;;;;;5074491;28;20232;-77
2022/11/18 00:28:37;;;;;;;25.52;18.88;;;4.50;99.90;;;;;;5073370;28;20693;-77
2022/11/18 00:31:06;;;;;;;22.92;18.83;;;4.40;99.90;;;;;;5074721;28;20232;-76
2022/11/18 00:33:35;;;;;;;21.95;18.20;;;4.40;99.90;;;;;;5076021;28;20273;-76
2022/11/18 00:36:03;;;;;;;25.27;20.40;;;4.40;99.90;;;;;;5068168;28;20245;-79
2022/11/18 00:38:30;;;;;;;26.98;21.77;;;4.40;99.90;;;;;;5057955;28;20555;-77
2022/11/18 00:41:01;;;;;;;23.15;19.95;;;4.40;99.90;;;;;;5075716;28;20676;-79
2022/11/18 00:43:27;;;;;;;24.05;18.80;;;4.40;99.90;;;;;;5074181;28;20239;-76
2022/11/18 00:45:54;;;;;;;23.42;18.55;;;4.40;99.90;;;;;;5068081;28;20212;-77
2022/11/18 00:48:21;;;;;;;23.88;20.38;;;4.40;99.90;;;;;;5065631;28;20255;-76
2022/11/18 00:50:51;;;;;;;22.85;19.65;;;4.30;99.90;;;;;;5071081;28;20224;-77
2022/11/18 00:53:19;;;;;;;21.60;18.95;;;4.30;99.90;;;;;;5074015;28;20236;-76
2022/11/18 00:55:49;;;;;;;22.25;18.33;;;4.30;99.90;;;;;;5072842;28;20220;-79
2022/11/18 00:58:17;;;;;;;20.70;17.75;;;4.30;99.90;;;;;;5071151;28;20744;-77
2022/11/18 01:00:47;;;;;;;23.65;18.17;;;4.30;99.90;;;;;;5070071;28;20220;-77
2022/11/18 01:03:14;;;;;;;20.20;18.10;;;4.30;99.90;;;;;;5071737;28;20228;-81
2022/11/18 01:05:42;;;;;;;22.98;18.73;;;4.40;99.90;;;;;;5064105;28;20290;-80
2022/11/18 01:08:12;;;;;;;21.83;18.92;;;4.40;99.90;;;;;;5059635;28;20723;-79
2022/11/18 01:10:40;;;;;;;23.88;19.95;;;4.40;99.90;;;;;;5072922;28;20231;-78
2022/11/18 01:13:19;;;;;;;24.95;19.88;;;4.30;99.90;;;;;;5073533;28;20313;-80
2022/11/18 01:15:49;;;;;;;22.25;18.17;;;4.40;99.90;;;;;;5071317;28;20230;-77
2022/11/18 01:18:17;;;;;;;22.75;16.92;;;4.40;99.90;;;;;;5072931;28;20228;-79
2022/11/18 01:20:44;;;;;;;24.08;18.98;;;4.40;99.90;;;;;;5072040;28;20235;-80
2022/11/18 01:23:13;;;;;;;24.33;20.08;;;4.30;99.90;;;;;;5072595;28;20319;-76
2022/11/18 01:25:42;;;;;;;25.80;19.73;;;4.30;99.90;;;;;;5071339;28;20224;-77
2022/11/18 01:28:09;;;;;;;20.60;17.90;;;4.20;99.90;;;;;;5071323;28;20234;-79
2022/11/18 01:30:37;;;;;;;20.63;18.15;;;4.10;99.90;;;;;;5069388;28;20232;-77
2022/11/18 01:33:05;;;;;;;23.08;20.65;;;4.10;99.90;;;;;;5072300;28;20223;-79
2022/11/18 01:35:35;;;;;;;21.80;19.55;;;4.10;99.90;;;;;;5058502;28;20228;-79
2022/11/18 01:38:03;;;;;;;22.50;19.27;;;4.00;99.90;;;;;;5071402;28;20228;-79
2022/11/18 01:40:32;;;;;;;20.90;18.38;;;3.90;99.90;;;;;;5072214;28;20522;-77
2022/11/18 01:42:59;;;;;;;23.75;18.88;;;3.90;99.90;;;;;;5072747;28;20224;-77
2022/11/18 01:45:33;;;;;;;21.48;19.15;;;4.00;99.90;;;;;;5072781;28;20297;-77
2022/11/18 01:48:05;;;;;;;22.27;19.77;;;4.00;99.90;;;;;;5073040;28;20289;-77
2022/11/18 01:50:35;;;;;;;20.83;18.52;;;4.00;99.90;;;;;;5071708;28;20281;-77
2022/11/18 01:53:05;;;;;;;20.15;18.05;;;3.90;99.90;;;;;;5070783;28;20224;-76
2022/11/18 01:55:37;;;;;;;24.55;20.27;;;3.90;99.90;;;;;;5068200;28;20689;-79
2022/11/18 01:58:15;;;;;;;20.50;17.95;;;3.80;99.90;;;;;;5060669;28;20219;-79
2022/11/18 02:00:43;;;;;;;21.15;18.92;;;3.80;99.90;;;;;;5057043;28;20220;-78
2022/11/18 02:03:10;;;;;;;23.55;18.85;;;3.90;99.90;;;;;;5070909;28;20231;-77
2022/11/18 02:05:39;;;;;;;23.33;20.13;;;3.80;99.90;;;;;;5070545;28;20224;-77
2022/11/18 02:08:07;;;;;;;22.83;18.52;;;3.80;99.90;;;;;;5070696;28;20224;-77
2022/11/18 02:10:36;;;;;;;23.15;20.52;;;3.80;99.90;;;;;;5070673;28;20754;-79
2022/11/18 02:13:03;;;;;;;21.58;19.20;;;3.80;99.90;;;;;;5067984;28;20232;-77
2022/11/18 02:15:46;;;;;;;24.50;19.90;;;3.90;99.90;;;;;;5061687;28;20297;-79
2022/11/18 02:18:23;;;;;;;22.48;18.95;;;3.90;99.90;;;;;;5071232;28;20228;-80
2022/11/18 02:20:55;;;;;;;21.75;18.80;;;3.90;99.90;;;;;;5072246;28;20556;-79
2022/11/18 02:24:08;;;;;;;19.27;17.25;;;3.80;99.90;;;;;;5059550;28;20290;-80
2022/11/18 02:27:13;;;;;;;21.25;18.30;;;3.90;99.90;;;;;;5042749;28;20220;-79
2022/11/18 02:29:46;;;;;;;18.60;16.65;;;3.90;99.90;;;;;;5046773;28;20293;-77
2022/11/18 02:32:19;;;;;;;21.02;18.75;;;3.90;99.90;;;;;;5077498;28;20220;-80
2022/11/18 02:34:52;;;;;;;24.35;18.15;;;3.90;99.90;;;;;;5063995;28;20754;-77
2022/11/18 02:37:28;;;;;;;22.27;19.73;;;3.90;99.90;;;;;;5076348;28;20239;-80
2022/11/18 02:40:01;;;;;;;23.60;19.02;;;3.90;99.90;;;;;;5075755;28;20228;-75
2022/11/18 02:42:31;;;;;;;23.33;17.73;;;3.90;99.90;;;;;;5076382;28;20315;-78
2022/11/18 02:45:06;;;;;;;20.48;17.80;;;3.90;99.90;;;;;;5075959;28;20548;-77
2022/11/18 02:47:36;;;;;;;23.17;18.98;;;4.00;99.90;;;;;;5076025;28;20227;-80
2022/11/18 02:50:09;;;;;;;20.42;17.58;;;4.10;99.90;;;;;;5075912;28;20596;-80
2022/11/18 02:52:39;;;;;;;21.55;18.70;;;4.10;99.90;;;;;;5076406;28;20228;-80
2022/11/18 02:55:16;;;;;;;20.00;18.08;;;4.10;99.90;;;;;;5074622;28;20220;-79
2022/11/18 02:57:46;;;;;;;21.88;19.00;;;4.10;99.90;;;;;;5073325;28;20239;-76
2022/11/18 03:00:16;;;;;;;20.63;18.52;;;4.10;99.90;;;;;;5055010;28;20236;-79
2022/11/18 03:02:45;;;;;;;23.60;18.40;;;4.10;99.90;;;;;;5054166;28;20311;-78
2022/11/18 03:05:19;;;;;;;23.17;19.70;;;4.10;99.90;;;;;;5055682;28;20329;-79
2022/11/18 03:07:53;;;;;;;22.88;19.33;;;4.00;99.90;;;;;;5055401;28;20235;-77
2022/11/18 03:10:24;;;;;;;25.40;19.35;;;3.90;99.90;;;;;;5056393;28;20286;-76
2022/11/18 03:13:03;;;;;;;22.92;19.05;;;3.90;99.90;;;;;;5055816;28;20604;-76
2022/11/18 03:15:42;;;;;;;24.95;19.35;;;3.90;99.90;;;;;;5056074;28;20228;-79
2022/11/18 03:18:20;;;;;;;23.35;19.20;;;3.90;99.90;;;;;;5055228;28;20220;-79
2022/11/18 03:20:52;;;;;;;23.70;19.58;;;3.90;99.90;;;;;;5054783;28;20741;-77
2022/11/18 03:23:29;;;;;;;21.80;18.88;;;3.90;99.90;;;;;;5055458;28;20232;-79
2022/11/18 03:26:02;;;;;;;22.20;19.55;;;3.90;99.90;;;;;;5054986;28;20300;-79
2022/11/18 03:28:35;;;;;;;24.98;19.30;;;3.80;99.90;;;;;;5055671;28;20228;-76
2022/11/18 03:31:09;;;;;;;22.85;20.45;;;3.80;99.90;;;;;;5055077;28;20233;-78
2022/11/18 03:33:41;;;;;;;25.05;20.85;;;3.70;99.90;;;;;;5054016;28;20232;-77
2022/11/18 03:36:11;;;;;;;24.88;22.30;;;3.70;99.90;;;;;;5054515;28;20228;-78
2022/11/18 03:38:43;;;;;;;23.08;20.60;;;3.80;99.90;;;;;;5055122;28;20235;-80
2022/11/18 03:41:12;;;;;;;23.17;20.65;;;3.70;99.90;;;;;;5053962;28;20290;-75
2022/11/18 03:43:45;;;;;;;27.65;21.77;;;3.70;99.90;;;;;;5055667;28;20228;-76
2022/11/18 03:46:17;;;;;;;30.35;21.27;;;3.60;99.90;;;;;;5054956;28;20554;-75
2022/11/18 03:48:50;;;;;;;25.92;20.88;;;3.60;99.90;;;;;;5054293;28;20225;-78
2022/11/18 03:51:20;;;;;;;25.60;22.25;;;3.60;99.90;;;;;;5043115;28;20259;-76
2022/11/18 03:53:52;;;;;;;28.50;22.80;;;3.60;99.90;;;;;;5035072;28;20316;-78
2022/11/18 03:56:24;;;;;;;24.15;20.38;;;3.60;99.90;;;;;;5034608;28;20224;-78
2022/11/18 03:58:56;;;;;;;28.98;21.65;;;3.60;99.90;;;;;;5035027;28;20283;-78
2022/11/18 04:01:31;;;;;;;28.65;22.08;;;3.60;99.90;;;;;;5035597;28;20306;-76
2022/11/18 04:03:58;;;;;;;25.83;20.70;;;3.60;99.90;;;;;;5035101;28;20227;-76
2022/11/18 04:06:31;;;;;;;31.13;23.40;;;3.50;99.90;;;;;;5034587;28;20321;-76
2022/11/18 04:09:03;;;;;;;30.02;23.27;;;3.60;99.90;;;;;;5035748;28;20233;-78
2022/11/18 04:14:20;;;;;;;27.48;21.85;;;3.40;99.90;;;;;;5034556;28;20224;-76
2022/11/18 04:16:52;;;;;;;31.40;23.33;;;3.40;99.90;;;;;;5035639;28;20649;-79
2022/11/18 04:19:20;;;;;;;34.20;25.88;;;3.30;99.90;;;;;;5034005;28;20636;-79
2022/11/18 04:21:47;;;;;;;31.95;24.90;;;3.30;99.90;;;;;;5038301;28;20233;-76
2022/11/18 04:24:15;;;;;;;34.13;25.42;;;3.40;99.90;;;;;;5054386;28;20225;-76
2022/11/18 04:26:42;;;;;;;30.83;25.48;;;3.30;99.90;;;;;;5055236;28;20251;-79
2022/11/18 04:29:09;;;;;;;38.28;27.30;;;3.30;99.90;;;;;;5046524;28;20240;-79
2022/11/18 04:31:36;;;;;;;39.58;27.85;;;3.20;99.90;;;;;;5054736;28;20270;-79
2022/11/18 04:34:07;;;;;;;35.42;27.33;;;3.20;99.90;;;;;;5055420;28;20220;-76
2022/11/18 04:36:37;;;;;;;42.97;28.75;;;3.10;99.90;;;;;;5056848;28;20243;-76
2022/11/18 04:39:05;;;;;;;33.85;26.45;;;3.10;99.90;;;;;;5057769;28;20713;-78
2022/11/18 04:44:16;;;;;;;34.03;25.88;;;3.00;99.90;;;;;;5053859;28;20228;-79
2022/11/18 04:46:44;;;;;;;39.03;28.77;;;3.00;99.90;;;;;;5054376;28;20223;-79
2022/11/18 04:49:14;;;;;;;39.47;26.98;;;3.10;99.90;;;;;;5055119;28;20236;-77
2022/11/18 04:51:42;;;;;;;36.70;26.17;;;3.10;99.90;;;;;;5053290;28;20228;-76
2022/11/18 04:54:11;;;;;;;39.22;28.88;;;3.10;99.90;;;;;;5054605;28;20220;-79
2022/11/18 04:56:39;;;;;;;35.17;26.20;;;3.10;99.90;;;;;;5056240;28;20286;-76
2022/11/18 04:59:06;;;;;;;35.55;27.75;;;3.00;99.90;;;;;;5054786;28;20251;-76
2022/11/18 05:01:34;;;;;;;36.17;27.33;;;2.90;99.90;;;;;;5053994;28;20228;-78
2022/11/18 05:04:01;;;;;;;35.63;27.60;;;2.90;99.90;;;;;;5055285;28;20236;-79
2022/11/18 05:06:43;;;;;;;36.83;26.95;;;3.00;99.90;;;;;;5051292;28;20215;-79
2022/11/18 05:09:10;;;;;;;37.25;26.25;;;3.00;99.90;;;;;;5058883;28;20236;-79
2022/11/18 05:14:22;;;;;;;41.28;24.80;;;3.10;99.90;;;;;;5053138;28;20216;-79
2022/11/18 05:16:49;;;;;;;32.92;25.00;;;3.10;99.90;;;;;;5052935;28;20232;-79
2022/11/18 05:19:16;;;;;;;38.47;26.98;;;3.20;99.90;;;;;;5053132;28;20239;-79
2022/11/18 05:21:45;;;;;;;34.25;25.48;;;3.10;99.90;;;;;;5052688;28;20297;-79
2022/11/18 05:24:12;;;;;;;34.40;24.98;;;3.20;99.90;;;;;;5053095;28;20306;-77
2022/11/18 05:26:39;;;;;;;33.88;25.83;;;3.20;99.90;;;;;;5052891;28;20673;-77
2022/11/18 05:29:06;;;;;;;34.72;25.42;;;3.10;99.90;;;;;;5053695;28;20788;-77
2022/11/18 05:31:33;;;;;;;36.17;27.08;;;3.10;99.90;;;;;;5052666;28;20238;-77
2022/11/18 05:34:00;;;;;;;31.13;21.83;;;3.10;99.90;;;;;;5052044;28;20274;-77
2022/11/18 05:36:28;;;;;;;30.73;23.23;;;3.10;99.90;;;;;;5052982;28;20220;-76
2022/11/18 05:38:58;;;;;;;32.78;24.35;;;3.10;99.90;;;;;;5055199;28;20232;-79
2022/11/18 05:44:10;;;;;;;36.03;25.90;;;3.20;99.90;;;;;;5053935;28;20227;-76
2022/11/18 05:46:37;;;;;;;32.80;26.40;;;3.20;99.90;;;;;;5052264;28;20572;-77
2022/11/18 05:49:04;;;;;;;31.98;24.80;;;3.10;99.90;;;;;;5053408;28;20229;-77
2022/11/18 05:51:35;;;;;;;36.75;25.23;;;3.10;99.90;;;;;;5054588;28;20221;-80
2022/11/18 05:54:07;;;;;;;29.20;23.42;;;3.10;99.90;;;;;;5053160;28;20224;-77
2022/11/18 05:56:37;;;;;;;34.45;24.92;;;3.10;99.90;;;;;;5052905;28;20251;-77
2022/11/18 05:59:05;;;;;;;25.17;22.27;;;3.00;99.90;;;;;;5056962;28;20224;-77
2022/11/18 06:01:36;;;;;;;31.02;23.88;;;3.00;99.90;;;;;;5054331;28;20609;-78
2022/11/18 06:04:08;;;;;;;31.13;21.48;;;2.90;99.90;;;;;;5056700;28;20228;-77
2022/11/18 06:06:36;;;;;;;27.55;21.30;;;2.90;99.90;;;;;;5057562;28;20274;-80
2022/11/18 06:09:10;;;;;;;26.63;20.95;;;3.00;99.90;;;;;;5058504;28;20228;-79
2022/11/18 06:11:45;;;;;;;28.77;20.73;;;3.00;99.90;;;;;;5057164;28;20232;-79
2022/11/18 06:14:15;;;;;;;25.77;21.02;;;3.00;99.90;;;;;;5058238;28;20708;-79
2022/11/18 06:16:46;;;;;;;23.95;18.10;;;3.00;99.90;;;;;;5057670;28;21665;-78
2022/11/18 06:19:23;;;;;;;26.40;19.58;;;3.00;99.90;;;;;;5057524;28;20737;-79
2022/11/18 06:21:51;;;;;;;29.02;19.10;;;2.90;99.90;;;;;;5057957;28;20220;-79
2022/11/18 06:24:19;;;;;;;25.33;18.55;;;3.00;99.90;;;;;;5059377;28;20219;-77
2022/11/18 06:26:47;;;;;;;22.30;19.35;;;3.00;99.90;;;;;;5060487;28;20872;-79
2022/11/18 06:29:17;;;;;;;22.65;18.10;;;3.00;99.90;;;;;;5058551;28;20232;-79
2022/11/18 06:31:46;;;;;;;28.75;20.77;;;2.90;99.90;;;;;;5057060;28;20286;-79
2022/11/18 06:34:13;;;;;;;22.88;18.10;;;2.80;99.90;;;;;;5057018;28;20301;-80
2022/11/18 06:36:40;;;;;;;20.67;16.30;;;2.80;99.90;;;;;;5048320;28;20685;-79
2022/11/18 06:39:08;;;;;;;22.60;18.05;;;2.80;99.90;;;;;;5057493;28;20252;-80
2022/11/18 06:41:39;;;;;;;22.60;17.27;;;2.80;99.90;;;;;;5058286;28;20232;-80
2022/11/18 06:44:09;;;;;;;25.35;18.58;;;2.80;99.90;;;;;;5063102;28;20286;-81
2022/11/18 06:49:20;;;;;;;22.23;16.55;;;2.90;99.90;;;;;;5058011;28;20280;-80
2022/11/18 06:51:47;;;;;;;22.67;17.15;;;2.90;99.90;;;;;;5056657;28;20678;-80
2022/11/18 06:54:15;;;;;;;21.75;18.30;;;2.90;99.90;;;;;;5056494;28;20223;-79
2022/11/18 06:56:45;;;;;;;22.23;17.00;;;2.90;99.90;;;;;;5055608;28;20275;-81
2022/11/18 06:59:12;;;;;;;22.27;17.58;;;2.80;99.90;;;;;;5056765;28;20224;-79
2022/11/18 07:01:41;;;;;;;20.45;17.50;;;2.70;99.90;;;;;;5057199;28;20282;-79
2022/11/18 07:04:08;;;;;;;24.48;18.65;;;2.70;99.90;;;;;;5056297;28;20235;-79
2022/11/18 07:06:38;;;;;;;26.13;19.48;;;2.60;99.90;;;;;;5061201;28;20257;-80
2022/11/18 07:09:07;;;;;;;24.73;19.13;;;2.60;99.90;;;;;;5056525;28;20236;-78
2022/11/18 07:11:37;;;;;;;23.73;17.10;;;2.60;99.90;;;;;;5055262;28;20228;-76
2022/11/18 07:14:05;;;;;;;23.75;18.25;;;2.60;99.90;;;;;;5055551;28;20243;-76
2022/11/18 07:16:34;;;;;;;26.98;18.13;;;2.60;99.90;;;;;;5057430;28;20251;-79
2022/11/18 07:19:03;;;;;;;25.33;19.63;;;2.60;99.90;;;;;;5055680;28;20264;-79
2022/11/18 07:21:30;;;;;;;25.02;18.85;;;2.60;99.90;;;;;;5055145;28;20229;-76
2022/11/18 07:23:57;;;;;;;21.77;18.63;;;2.60;99.90;;;;;;5053569;28;20236;-76
2022/11/18 07:26:24;;;;;;;18.77;16.38;;;2.60;99.90;;;;;;5055097;28;20253;-78
2022/11/18 07:28:52;;;;;;;25.98;16.73;;;2.60;99.90;;;;;;5054882;28;20229;-78
2022/11/18 07:31:21;;;;;;;24.85;18.05;;;2.50;99.90;;;;;;5055626;28;20698;-79
2022/11/18 07:33:48;;;;;;;22.90;18.13;;;2.50;99.90;;;;;;5055679;28;20235;-78
2022/11/18 07:36:18;;;;;;;22.77;16.50;;;2.50;99.90;;;;;;5053709;28;20220;-78
2022/11/18 07:38:46;;;;;;;21.38;18.02;;;2.40;99.90;;;;;;5055659;28;20315;-79
2022/11/18 07:41:17;;;;;;;25.30;19.63;;;2.50;99.90;;;;;;5054177;28;20229;-76
2022/11/18 07:43:45;;;;;;;22.67;18.08;;;2.50;99.90;;;;;;5055981;28;20709;-78
2022/11/18 07:46:15;;;;;;;24.77;17.92;;;2.40;99.90;;;;;;5055265;28;20316;-78
2022/11/18 07:48:45;;;;;;;20.55;18.17;;;2.40;99.90;;;;;;5055535;28;20650;-77
2022/11/18 07:51:13;;;;;;;23.02;18.60;;;2.50;99.90;;;;;;5055036;28;20350;-77
2022/11/18 07:53:40;;;;;;;27.35;20.60;;;2.40;99.90;;;;;;5055714;28;20290;-79
2022/11/18 07:56:08;;;;;;;24.13;20.20;;;2.30;99.90;;;;;;5055121;28;20666;-77
2022/11/18 07:58:35;;;;;;;25.83;19.13;;;2.30;99.90;;;;;;5054857;28;20235;-77
2022/11/18 08:01:08;;;;;;;24.23;17.75;;;2.40;99.90;;;;;;5054728;28;20619;-77
2022/11/18 08:03:35;;;;;;;22.92;19.85;;;2.40;99.90;;;;;;5055317;28;20327;-79
2022/11/18 08:06:06;;;;;;;28.17;21.75;;;2.40;99.90;;;;;;5054247;28;20545;-77
2022/11/18 08:08:34;;;;;;;22.70;17.23;;;2.40;99.90;;;;;;5055022;28;20302;-77
2022/11/18 08:11:04;;;;;;;23.55;19.73;;;2.40;99.90;;;;;;5053910;28;20229;-77
2022/11/18 08:13:35;;;;;;;23.38;18.20;;;2.40;99.90;;;;;;5055265;28;20229;-79
2022/11/18 08:16:02;;;;;;;25.52;19.45;;;2.40;99.90;;;;;;5053869;28;20237;-77
2022/11/18 08:18:30;;;;;;;23.02;18.27;;;2.40;99.90;;;;;;5054947;28;20252;-79
2022/11/18 08:21:13;;;;;;;23.13;18.08;;;2.40;99.90;;;;;;5054232;28;20239;-77
2022/11/18 08:23:41;;;;;;;25.30;19.60;;;2.30;99.90;;;;;;5045866;28;20239;-81
2022/11/18 08:26:10;;;;;;;30.88;21.27;;;2.30;99.90;;;;;;5053701;28;20570;-77
2022/11/18 08:28:37;;;;;;;24.92;18.50;;;2.30;99.90;;;;;;5054921;28;20225;-80
2022/11/18 08:31:10;;;;;;;24.05;18.88;;;2.30;99.90;;;;;;5053659;28;20705;-77
2022/11/18 08:33:38;;;;;;;21.38;17.70;;;2.30;99.90;;;;;;5054491;28;20242;-77
2022/11/18 08:36:12;;;;;;;21.02;17.80;;;2.20;99.90;;;;;;5054080;28;20675;-80
2022/11/18 08:38:39;;;;;;;25.13;18.45;;;2.40;99.90;;;;;;5053985;28;20277;-79
2022/11/18 08:41:12;;;;;;;25.40;18.20;;;2.40;99.90;;;;;;5053656;28;20538;-79
2022/11/18 08:44:01;;;;;;;24.80;18.13;;;2.40;99.90;;;;;;5054271;28;20235;-79
2022/11/18 08:46:30;;;;;;;22.48;18.67;;;2.30;99.90;;;;;;5055329;28;20243;-79
2022/11/18 08:48:58;;;;;;;21.42;17.52;;;2.20;99.90;;;;;;5058340;28;20294;-77
2022/11/18 08:51:44;;;;;;;22.50;17.70;;;2.20;99.90;;;;;;5038150;28;20302;-77
2022/11/18 08:54:18;;;;;;;23.30;17.83;;;2.20;99.90;;;;;;5064487;28;20236;-78
2022/11/18 08:56:49;;;;;;;22.67;17.27;;;2.20;99.90;;;;;;5053925;28;20258;-76
2022/11/18 09:09:41;;;;;;;23.60;16.77;;;2.10;99.90;;;;;;4763993;29;20344;-76
2022/11/18 09:12:09;;;;;;;20.58;17.50;;;2.10;99.90;;;;;;4870808;28;20222;-77
2022/11/18 09:17:50;;;;;;;19.20;15.57;;;2.00;99.90;;;;;;5037494;28;20224;-78
2022/11/18 09:24:28;;;;;;;;;;;;;;;;;;;;;
2022/11/18 09:31:01;;;;;;;20.33;15.82;;;2.10;99.90;;;;;;4833415;29;20682;-80
2022/11/18 09:36:40;;;;;;;19.00;15.30;;;2.10;99.90;;;;;;4994866;28;20220;-79
2022/11/18 09:39:08;;;;;;;21.38;16.08;;;2.10;99.90;;;;;;5053687;28;20628;-79
2022/11/18 09:42:14;;;;;;;19.15;15.30;;;2.20;99.90;;;;;;5044952;28;20228;-77
2022/11/18 09:44:52;;;;;;;19.02;14.80;;;2.20;99.90;;;;;;5050032;28;20224;-76
2022/11/18 09:47:27;;;;;;;19.50;15.60;;;2.30;99.90;;;;;;5052234;28;20228;-77
2022/11/18 09:49:56;;;;;;;18.80;15.07;;;2.30;99.90;;;;;;5052551;28;20678;-76
2022/11/18 09:52:28;;;;;;;14.80;13.13;;;2.40;99.90;;;;;;5052527;28;20566;-79
2022/11/18 09:55:03;;;;;;;15.45;12.57;;;2.40;99.90;;;;;;5052156;28;20225;-79
2022/11/18 09:57:37;;;;;;;14.73;12.30;;;2.30;99.90;;;;;;5052737;28;20312;-79
2022/11/18 10:00:14;;;;;;;15.27;11.38;;;2.30;99.90;;;;;;5053601;28;20338;-79
2022/11/18 10:02:51;;;;;;;12.80;10.70;;;2.30;99.90;;;;;;5054027;28;20213;-80
2022/11/18 10:05:21;;;;;;;10.18;8.90;;;2.30;99.90;;;;;;5053406;28;21134;-77
2022/11/18 10:08:03;;;;;;;12.55;9.85;;;2.20;99.90;;;;;;5043559;28;20570;-78
2022/11/18 10:10:41;;;;;;;10.80;9.68;;;2.20;99.90;;;;;;5053435;28;20229;-79
2022/11/18 10:13:17;;;;;;;11.18;10.15;;;2.10;99.90;;;;;;5053204;28;20686;-77
2022/11/18 10:16:04;;;;;;;9.20;8.30;;;2.10;99.90;;;;;;5053967;28;20562;-79
2022/11/18 10:18:39;;;;;;;12.38;8.75;;;2.10;99.90;;;;;;5052095;28;20220;-78
2022/11/18 10:21:19;;;;;;;10.18;9.18;;;2.00;99.90;;;;;;5049466;28;20569;-78
2022/11/18 10:23:55;;;;;;;10.07;9.10;;;2.00;99.90;;;;;;5043722;28;20595;-77
2022/11/18 10:26:34;;;;;;;10.10;9.10;;;2.00;99.90;;;;;;5032892;28;20285;-77
2022/11/18 10:29:14;;;;;;;8.65;7.82;;;2.00;99.90;;;;;;5024258;28;20236;-79
2022/11/18 10:31:56;;;;;;;11.48;8.50;;;2.00;99.90;;;;;;5033474;28;20675;-78
2022/11/18 10:34:26;;;;;;;8.98;8.10;;;2.00;99.90;;;;;;5032372;28;20225;-77
2022/11/18 10:37:06;;;;;;;9.20;7.55;;;2.10;99.90;;;;;;5024099;28;20312;-79
2022/11/18 10:39:34;;;;;;;8.88;7.95;;;2.10;99.90;;;;;;5052627;28;20224;-78
2022/11/18 10:42:21;;;;;;;8.68;7.82;;;2.10;99.90;;;;;;5053869;28;20227;-80
2022/11/18 10:44:48;;;;;;;7.78;7.05;;;2.10;99.90;;;;;;5054032;28;20728;-79
2022/11/18 10:47:24;;;;;;;8.50;7.70;;;2.00;99.90;;;;;;5052275;28;20229;-77
2022/11/18 10:50:34;;;;;;;9.13;7.30;;;2.00;99.90;;;;;;5056035;28;20233;-79
2022/11/18 10:53:02;;;;;;;9.18;8.27;;;2.10;99.90;;;;;;5056563;28;20228;-79
2022/11/18 10:55:30;;;;;;;9.70;8.02;;;2.10;99.90;;;;;;5057966;28;20662;-77
2022/11/18 10:58:04;;;;;;;9.05;8.15;;;2.20;99.90;;;;;;5056201;28;20225;-80
2022/11/18 11:00:40;;;;;;;8.57;7.78;;;2.20;99.90;;;;;;5056444;28;20255;-79
2022/11/18 11:03:35;;;;;;;8.63;7.82;;;2.30;99.90;;;;;;5055510;28;20284;-76
2022/11/18 11:06:29;;;;;;;8.05;7.15;;;2.40;99.90;;;;;;5045527;28;20225;-80
2022/11/18 11:08:57;;;;;;;10.38;8.70;;;2.50;99.90;;;;;;5047595;28;20228;-79
2022/11/18 11:11:27;;;;;;;11.10;9.50;;;2.40;99.90;;;;;;5056002;28;20667;-80
2022/11/18 11:14:15;;;;;;;9.80;8.80;;;2.30;99.90;;;;;;5055585;28;20239;-77
2022/11/18 11:16:49;;;;;;;9.43;8.30;;;2.30;99.90;;;;;;5056698;28;20227;-78
2022/11/18 11:19:22;;;;;;;10.48;8.27;;;2.30;99.90;;;;;;5044708;28;20232;-79
2022/11/18 11:21:51;;;;;;;12.50;9.18;;;2.40;99.90;;;;;;5059768;28;20274;-79
2022/11/18 11:24:18;;;;;;;11.55;9.35;;;2.40;99.90;;;;;;5076002;28;20253;-79
2022/11/18 11:26:56;;;;;;;10.52;9.38;;;2.40;99.90;;;;;;5075741;28;20319;-79
2022/11/18 11:29:39;;;;;;;9.45;8.52;;;2.40;99.90;;;;;;5076620;28;20230;-78
2022/11/18 11:32:16;;;;;;;10.25;8.88;;;2.40;99.90;;;;;;5075542;28;20224;-78
2022/11/18 11:34:51;;;;;;;12.02;9.20;;;2.40;99.90;;;;;;5073799;28;20247;-79
2022/11/18 11:37:29;;;;;;;11.18;9.88;;;2.50;99.90;;;;;;5071148;28;20237;-78
2022/11/18 11:40:13;;;;;;;10.68;9.57;;;2.50;99.90;;;;;;5064495;28;20301;-79
2022/11/18 11:42:52;;;;;;;10.98;8.10;;;2.50;99.90;;;;;;5074889;28;20223;-79
2022/11/18 11:45:24;;;;;;;12.65;11.35;;;2.60;99.90;;;;;;5075103;28;20239;-79
2022/11/18 11:48:18;;;;;;;10.10;8.27;;;2.60;99.90;;;;;;5074813;28;20622;-79
2022/11/18 11:50:53;;;;;;;9.75;8.82;;;2.70;99.90;;;;;;5074565;28;20722;-79
2022/11/18 11:53:42;;;;;;;10.23;8.48;;;2.70;99.90;;;;;;5074309;28;20239;-77
2022/11/18 11:56:20;;;;;;;9.65;8.70;;;2.70;99.90;;;;;;5075103;28;20251;-77
2022/11/18 11:59:07;;;;;;;9.38;8.38;;;2.70;99.90;;;;;;5064498;28;20568;-77
2022/11/18 12:01:38;;;;;;;9.60;8.35;;;2.70;99.90;;;;;;5073030;28;20571;-79
2022/11/18 12:04:24;;;;;;;10.30;8.73;;;2.70;99.90;;;;;;5074105;28;20228;-77
2022/11/18 12:06:55;;;;;;;9.70;8.68;;;2.80;99.90;;;;;;5074159;28;20733;-77
2022/11/18 12:09:34;;;;;;;10.88;8.52;;;2.80;99.90;;;;;;5074116;28;20220;-79
2022/11/18 12:12:33;;;;;;;8.70;7.80;;;2.80;99.90;;;;;;5062606;28;20678;-79
2022/11/18 12:15:22;;;;;;;10.68;7.90;;;2.90;99.90;;;;;;5074347;28;20228;-78
2022/11/18 12:17:58;;;;;;;13.10;9.07;;;2.90;99.90;;;;;;5063268;28;20235;-79
2022/11/18 12:20:56;;;;;;;;;;;;;;;;;;;;;
2022/11/18 12:23:26;;;;;;;9.02;8.13;;;2.90;99.90;;;;;;5073432;28;21124;-76
2022/11/18 12:26:01;;;;;;;9.07;7.90;;;3.00;99.90;;;;;;5073632;28;20240;-79
2022/11/18 12:28:35;;;;;;;10.30;7.53;;;2.90;99.90;;;;;;5074103;28;20237;-79
2022/11/18 12:31:33;;;;;;;8.40;7.43;;;3.00;99.90;;;;;;5074221;28;20307;-79
2022/11/18 12:34:03;;;;;;;10.10;9.10;;;3.00;99.90;;;;;;5074046;28;20220;-77
2022/11/18 12:36:32;;;;;;;8.63;7.68;;;3.00;99.90;;;;;;5073446;28;20216;-77
2022/11/18 12:45:58;;;;;;;8.27;7.47;;;3.20;99.90;;;;;;5041070;28;20232;-77
2022/11/18 12:48:39;;;;;;;8.30;7.50;;;3.20;99.90;;;;;;5062462;28;20224;-79
2022/11/18 12:51:46;;;;;;;8.18;7.35;;;3.10;99.90;;;;;;5073434;28;20674;-79
2022/11/18 12:54:27;;;;;;;7.80;7.10;;;3.10;99.90;;;;;;5072856;28;20246;-77
2022/11/18 12:56:55;;;;;;;7.18;6.30;;;2.90;99.90;;;;;;5073419;28;20677;-76
2022/11/18 12:59:33;;;;;;;9.05;7.43;;;3.00;99.90;;;;;;5071328;28;20266;-76
2022/11/18 13:02:21;;;;;;;7.72;6.45;;;3.00;99.90;;;;;;5073492;28;20514;-76
2022/11/18 13:05:09;;;;;;;8.07;6.53;;;3.00;99.90;;;;;;5073623;28;20224;-77
2022/11/18 13:10:38;;;;;;;7.63;6.85;;;3.00;99.90;;;;;;5073175;28;20369;-79
2022/11/18 13:13:28;;;;;;;6.95;6.20;;;3.00;99.90;;;;;;5073323;28;20289;-79
2022/11/18 13:18:49;;;;;;;9.23;7.47;;;3.00;99.90;;;;;;5072597;28;20309;-79
2022/11/18 13:24:13;;;;;;;6.95;6.25;;;2.90;99.90;;;;;;5074004;28;20293;-79
2022/11/18 13:26:42;;;;;;;9.45;8.13;;;2.90;99.90;;;;;;5061745;28;20235;-79
2022/11/18 13:29:35;;;;;;;8.90;7.53;;;2.80;99.90;;;;;;5072372;28;20232;-79
2022/11/18 13:32:20;;;;;;;7.70;6.90;;;2.70;99.90;;;;;;5072187;28;20224;-78
2022/11/18 13:34:52;;;;;;;9.10;7.50;;;2.70;99.90;;;;;;5073020;28;20220;-78
2022/11/18 13:37:22;;;;;;;7.95;6.57;;;2.80;99.90;;;;;;5060883;28;20285;-76
2022/11/18 13:39:50;;;;;;;8.55;7.72;;;2.90;99.90;;;;;;5072683;28;20228;-76
2022/11/18 13:42:21;;;;;;;11.48;7.88;;;2.90;99.90;;;;;;5071531;28;20738;-79
2022/11/18 13:44:54;;;;;;;8.60;5.93;;;2.90;99.90;;;;;;5073128;28;20234;-80
2022/11/18 13:47:31;;;;;;;6.68;5.97;;;2.90;99.90;;;;;;5072463;28;20234;-79
2022/11/18 13:52:33;;;;;;;8.65;7.07;;;3.00;99.90;;;;;;5051495;28;20236;-79
2022/11/18 13:55:08;;;;;;;7.78;6.75;;;3.00;99.90;;;;;;5052560;28;20220;-79
2022/11/18 13:57:38;;;;;;;7.43;6.03;;;3.00;99.90;;;;;;5052835;28;20212;-77
2022/11/18 14:00:08;;;;;;;8.40;6.57;;;3.00;99.90;;;;;;5053205;28;20588;-80
2022/11/18 14:02:45;;;;;;;7.60;6.90;;;3.00;99.90;;;;;;5051620;28;20294;-78
2022/11/18 14:05:20;;;;;;;6.43;5.72;;;3.00;99.90;;;;;;5044425;28;20231;-77
2022/11/18 14:08:01;;;;;;;8.43;6.75;;;3.00;99.90;;;;;;5063437;28;20310;-79
2022/11/18 14:10:33;;;;;;;7.30;6.60;;;3.10;99.90;;;;;;5046811;28;20305;-77